createdAt,value
2019-02-19T00:02:17.944Z,5.77
2019-02-19T00:04:45.368Z,5.85
2019-02-19T00:07:12.720Z,5.84
2019-02-19T00:09:40.178Z,5.71
2019-02-19T00:12:07.613Z,5.75
2019-02-19T00:14:35.063Z,5.77
2019-02-19T00:17:02.434Z,5.62
2019-02-19T00:19:29.878Z,5.57
2019-02-19T00:21:57.324Z,5.61
2019-02-19T00:24:24.701Z,5.65
2019-02-19T00:26:52.123Z,5.44
2019-02-19T00:29:19.544Z,5.40
2019-02-19T00:31:46.942Z,5.35
2019-02-19T00:34:14.367Z,5.40
2019-02-19T00:36:41.815Z,5.45
2019-02-19T00:39:09.239Z,5.59
2019-02-19T00:41:36.695Z,5.55
2019-02-19T00:44:04.134Z,5.21
2019-02-19T00:46:31.562Z,5.19
2019-02-19T00:48:59.012Z,4.75
2019-02-19T00:51:26.491Z,4.69
2019-02-19T00:53:54.018Z,4.42
2019-02-19T00:56:21.469Z,4.12
2019-02-19T00:58:48.893Z,3.93
2019-02-19T01:01:16.365Z,3.91
2019-02-19T01:03:43.720Z,3.80
2019-02-19T01:06:11.272Z,3.70
2019-02-19T01:08:38.683Z,3.53
2019-02-19T01:11:06.215Z,3.47
2019-02-19T01:13:33.663Z,3.32
2019-02-19T01:16:01.094Z,3.25
2019-02-19T01:18:28.514Z,3.25
2019-02-19T01:20:55.930Z,3.24
2019-02-19T01:23:23.396Z,3.24
2019-02-19T01:25:50.841Z,3.27
2019-02-19T01:28:18.251Z,3.31
2019-02-19T01:30:45.692Z,3.53
2019-02-19T01:33:13.096Z,3.62
2019-02-19T01:35:40.549Z,3.54
2019-02-19T01:38:08.061Z,3.68
2019-02-19T01:40:35.484Z,3.82
2019-02-19T01:43:02.919Z,3.90
2019-02-19T01:45:34.002Z,3.82
2019-02-19T01:47:59.729Z,4.05
2019-02-19T01:50:27.150Z,4.08
2019-02-19T01:52:54.670Z,4.14
2019-02-19T01:55:22.119Z,4.12
2019-02-19T01:57:49.550Z,4.07
2019-02-19T02:00:17.007Z,4.12
2019-02-19T02:02:44.396Z,4.09
2019-02-19T02:05:11.851Z,3.53
2019-02-19T02:07:39.318Z,3.68
2019-02-19T02:10:07.073Z,3.75
2019-02-19T02:12:34.496Z,3.92
2019-02-19T02:15:01.863Z,3.78
2019-02-19T02:17:29.274Z,3.78
2019-02-19T02:19:56.687Z,3.80
2019-02-19T02:22:24.047Z,3.84
2019-02-19T02:24:51.502Z,3.74
2019-02-19T02:27:19.039Z,3.81
2019-02-19T02:29:46.478Z,4.02
2019-02-19T02:32:13.940Z,4.11
2019-02-19T02:34:41.297Z,4.08
2019-02-19T02:37:08.728Z,4.13
2019-02-19T02:39:36.226Z,4.30
2019-02-19T02:42:03.660Z,4.27
2019-02-19T02:44:31.068Z,4.23
2019-02-19T02:46:58.511Z,4.23
2019-02-19T02:49:25.943Z,4.25
2019-02-19T02:51:53.405Z,4.22
2019-02-19T02:54:20.963Z,4.24
2019-02-19T02:56:48.436Z,4.05
2019-02-19T02:59:15.862Z,3.86
2019-02-19T03:01:43.250Z,3.81
2019-02-19T03:04:10.693Z,3.67
2019-02-19T03:06:42.916Z,3.65
2019-02-19T03:09:10.306Z,3.58
2019-02-19T03:11:37.743Z,3.53
2019-02-19T03:14:05.149Z,3.38
2019-02-19T03:16:32.507Z,3.20
2019-02-19T03:18:59.950Z,3.01
2019-02-19T03:21:27.359Z,2.88
2019-02-19T03:23:54.738Z,2.77
2019-02-19T03:26:22.140Z,2.70
2019-02-19T03:28:49.566Z,2.56
2019-02-19T03:31:17.003Z,2.36
2019-02-19T03:33:44.369Z,2.18
2019-02-19T03:36:11.789Z,2.05
2019-02-19T03:38:39.240Z,1.94
2019-02-19T03:41:06.701Z,1.88
2019-02-19T03:43:34.059Z,1.76
2019-02-19T03:46:01.495Z,1.72
2019-02-19T03:48:28.927Z,1.89
2019-02-19T03:50:56.364Z,1.83
2019-02-19T03:53:23.710Z,1.83
2019-02-19T03:55:51.300Z,2.11
2019-02-19T03:58:18.791Z,1.94
2019-02-19T04:00:46.415Z,1.96
2019-02-19T04:03:13.895Z,1.85
2019-02-19T04:05:41.341Z,1.77
2019-02-19T04:08:08.768Z,1.69
2019-02-19T04:10:36.207Z,1.67
2019-02-19T04:13:03.789Z,1.56
2019-02-19T04:15:31.408Z,1.50
2019-02-19T04:17:58.784Z,1.43
2019-02-19T04:20:26.246Z,1.10
2019-02-19T04:22:53.738Z,1.32
2019-02-19T04:25:21.098Z,1.55
2019-02-19T04:27:48.665Z,1.49
2019-02-19T04:30:16.201Z,1.53
2019-02-19T04:32:43.677Z,1.69
2019-02-19T04:35:11.322Z,1.60
2019-02-19T04:37:38.811Z,1.79
2019-02-19T04:40:07.257Z,2.27
2019-02-19T04:42:34.688Z,1.94
2019-02-19T04:45:02.198Z,1.80
2019-02-19T04:47:29.678Z,1.67
2019-02-19T04:49:57.138Z,1.68
2019-02-19T04:52:24.518Z,1.77
2019-02-19T04:54:51.977Z,1.62
2019-02-19T04:57:19.532Z,1.54
2019-02-19T04:59:46.981Z,1.58
2019-02-19T05:02:14.358Z,1.58
2019-02-19T05:04:41.769Z,1.56
2019-02-19T05:07:09.235Z,1.57
2019-02-19T05:09:36.661Z,1.61
2019-02-19T05:12:04.101Z,1.46
2019-02-19T05:14:31.520Z,1.37
2019-02-19T05:16:59.049Z,1.33
2019-02-19T05:19:26.493Z,1.21
2019-02-19T05:21:53.847Z,1.28
2019-02-19T05:24:21.327Z,1.46
2019-02-19T05:26:48.795Z,1.56
2019-02-19T05:29:16.235Z,1.63
2019-02-19T05:31:43.680Z,1.61
2019-02-19T05:34:11.048Z,1.70
2019-02-19T05:36:38.492Z,1.68
2019-02-19T05:39:06.101Z,1.60
2019-02-19T05:41:33.475Z,1.65
2019-02-19T05:44:00.961Z,1.68
2019-02-19T05:46:28.328Z,1.66
2019-02-19T05:48:55.683Z,1.67
2019-02-19T05:51:23.145Z,1.73
2019-02-19T05:53:50.618Z,1.78
2019-02-19T05:56:18.020Z,1.86
2019-02-19T05:58:46.056Z,1.99
2019-02-19T06:01:13.473Z,2.06
2019-02-19T06:03:40.931Z,2.10
2019-02-19T06:06:08.348Z,2.27
2019-02-19T06:08:35.803Z,2.57
2019-02-19T06:11:03.243Z,2.67
2019-02-19T06:13:30.929Z,2.86
2019-02-19T06:15:58.290Z,2.78
2019-02-19T06:18:25.742Z,2.74
2019-02-19T06:20:53.169Z,2.86
2019-02-19T06:23:20.546Z,2.94
2019-02-19T06:25:48.002Z,3.18
2019-02-19T06:28:15.518Z,3.13
2019-02-19T06:30:42.900Z,2.91
2019-02-19T06:33:10.336Z,3.23
2019-02-19T06:35:37.775Z,3.50
2019-02-19T06:38:05.262Z,3.70
2019-02-19T06:40:32.849Z,3.65
2019-02-19T06:43:00.403Z,3.68
2019-02-19T06:45:27.767Z,3.78
2019-02-19T06:47:55.218Z,3.73
2019-02-19T06:50:22.664Z,3.85
2019-02-19T06:52:50.050Z,3.86
2019-02-19T06:55:17.586Z,4.12
2019-02-19T06:57:45.044Z,4.21
2019-02-19T07:00:12.784Z,4.11
2019-02-19T07:03:02.703Z,4.05
2019-02-19T07:05:30.162Z,4.05
2019-02-19T07:07:57.610Z,4.06
2019-02-19T07:10:25.093Z,4.06
2019-02-19T07:12:52.508Z,4.09
2019-02-19T07:15:20.074Z,4.18
2019-02-19T07:17:47.496Z,4.12
2019-02-19T07:20:14.988Z,4.44
2019-02-19T07:22:42.477Z,4.35
2019-02-19T07:25:10.128Z,4.27
2019-02-19T07:27:37.574Z,4.16
2019-02-19T07:30:05.454Z,4.03
2019-02-19T07:32:32.886Z,4.03
2019-02-19T07:35:00.308Z,4.09
2019-02-19T07:37:27.844Z,4.05
2019-02-19T07:39:55.301Z,4.14
2019-02-19T07:42:23.202Z,4.39
2019-02-19T07:44:50.650Z,4.66
2019-02-19T07:47:24.468Z,4.65
2019-02-19T07:49:47.457Z,4.74
2019-02-19T07:52:14.938Z,4.93
2019-02-19T07:54:42.324Z,5.14
2019-02-19T07:57:09.762Z,5.22
2019-02-19T07:59:37.441Z,5.33
2019-02-19T08:02:04.961Z,5.29
2019-02-19T08:04:32.500Z,5.26
2019-02-19T08:06:59.944Z,5.36
2019-02-19T08:09:27.311Z,5.51
2019-02-19T08:11:54.756Z,5.68
2019-02-19T08:14:22.231Z,5.68
2019-02-19T08:16:49.658Z,5.95
2019-02-19T08:19:17.119Z,6.22
2019-02-19T08:21:44.554Z,6.28
2019-02-19T08:24:13.387Z,6.56
2019-02-19T08:26:40.832Z,6.56
2019-02-19T08:29:13.711Z,6.63
2019-02-19T08:31:37.913Z,6.71
2019-02-19T08:34:05.374Z,6.98
2019-02-19T08:36:32.794Z,7.37
2019-02-19T08:39:00.757Z,7.69
2019-02-19T08:41:28.176Z,7.92
2019-02-19T08:43:55.694Z,7.91
2019-02-19T08:46:23.112Z,8.11
2019-02-19T08:48:50.607Z,8.25
2019-02-19T08:51:18.011Z,8.51
2019-02-19T08:53:45.525Z,8.77
2019-02-19T08:56:12.989Z,9.10
2019-02-19T08:58:40.437Z,9.03
2019-02-19T09:01:07.813Z,9.11
2019-02-19T09:03:35.384Z,9.23
2019-02-19T09:06:02.938Z,9.24
2019-02-19T09:08:30.364Z,9.46
2019-02-19T09:10:57.815Z,9.65
2019-02-19T09:13:25.329Z,9.69
2019-02-19T09:15:52.834Z,9.74
2019-02-19T09:18:20.234Z,9.84
2019-02-19T09:20:47.721Z,9.93
2019-02-19T09:23:15.194Z,10.21
2019-02-19T09:25:42.661Z,10.15
2019-02-19T09:28:10.100Z,10.05
2019-02-19T09:30:37.472Z,9.88
2019-02-19T09:33:04.879Z,9.98
2019-02-19T09:35:32.313Z,9.99
2019-02-19T09:37:59.691Z,9.97
2019-02-19T09:40:27.157Z,9.91
2019-02-19T09:42:54.678Z,9.82
2019-02-19T09:45:22.289Z,10.02
2019-02-19T09:47:49.790Z,10.36
2019-02-19T09:50:17.225Z,10.39
2019-02-19T09:52:44.657Z,10.58
2019-02-19T09:55:12.116Z,10.69
2019-02-19T09:57:39.584Z,10.74
2019-02-19T10:00:09.340Z,10.90
2019-02-19T10:02:36.797Z,10.94
2019-02-19T10:05:04.997Z,11.15
2019-02-19T10:07:32.440Z,11.30
2019-02-19T10:10:00.250Z,10.98
2019-02-19T10:12:27.755Z,10.97
2019-02-19T10:14:55.241Z,11.13
2019-02-19T10:17:22.670Z,11.30
2019-02-19T10:19:50.121Z,11.31
2019-02-19T10:22:17.505Z,11.31
2019-02-19T10:24:44.984Z,11.27
2019-02-19T10:27:12.378Z,11.45
2019-02-19T10:29:39.862Z,11.65
2019-02-19T10:32:07.311Z,11.76
2019-02-19T10:34:34.716Z,11.75
2019-02-19T10:37:02.189Z,11.97
2019-02-19T10:39:29.705Z,12.11
2019-02-19T10:41:57.352Z,12.26
2019-02-19T10:44:24.858Z,12.27
2019-02-19T10:46:52.439Z,12.40
2019-02-19T10:49:19.846Z,12.53
2019-02-19T10:51:47.324Z,12.58
2019-02-19T10:54:14.784Z,12.56
2019-02-19T10:56:42.290Z,12.47
2019-02-19T10:59:09.677Z,12.48
2019-02-19T11:01:37.262Z,12.70
2019-02-19T11:04:04.699Z,12.78
2019-02-19T11:06:32.218Z,12.69
2019-02-19T11:08:59.692Z,12.80
2019-02-19T11:11:27.125Z,12.76
2019-02-19T11:13:54.553Z,12.77
2019-02-19T11:16:21.993Z,12.84
2019-02-19T11:18:49.435Z,12.93
2019-02-19T11:21:19.535Z,12.96
2019-02-19T11:23:46.217Z,13.01
2019-02-19T11:26:13.690Z,13.10
2019-02-19T11:28:41.264Z,13.24
2019-02-19T11:31:08.741Z,13.29
2019-02-19T11:33:36.261Z,13.42
2019-02-19T11:36:03.766Z,13.63
2019-02-19T11:38:31.191Z,13.80
2019-02-19T11:40:58.704Z,13.68
2019-02-19T11:43:26.133Z,13.57
2019-02-19T11:45:53.605Z,13.58
2019-02-19T11:48:21.110Z,13.86
2019-02-19T11:50:48.596Z,13.99
2019-02-19T11:53:16.039Z,13.98
2019-02-19T11:55:43.481Z,13.98
2019-02-19T11:58:10.893Z,13.99
2019-02-19T12:00:39.839Z,14.12
2019-02-19T12:03:07.285Z,14.20
2019-02-19T12:05:34.733Z,14.20
2019-02-19T12:08:02.156Z,14.25
2019-02-19T12:10:29.657Z,14.26
2019-02-19T12:12:57.057Z,14.63
2019-02-19T12:15:24.537Z,14.88
2019-02-19T12:17:52.030Z,15.10
2019-02-19T12:20:19.477Z,15.30
2019-02-19T12:22:46.893Z,15.39
2019-02-19T12:25:14.346Z,15.20
2019-02-19T12:27:41.838Z,15.31
2019-02-19T12:30:11.047Z,15.27
2019-02-19T12:32:38.588Z,15.20
2019-02-19T12:35:07.147Z,15.10
2019-02-19T12:37:34.554Z,15.08
2019-02-19T12:40:02.051Z,15.23
2019-02-19T12:42:29.592Z,15.19
2019-02-19T12:44:57.067Z,15.28
2019-02-19T12:47:24.567Z,15.64
2019-02-19T12:49:52.199Z,15.93
2019-02-19T12:52:19.805Z,16.01
2019-02-19T12:54:47.390Z,16.00
2019-02-19T12:57:14.806Z,15.99
2019-02-19T12:59:42.380Z,15.98
2019-02-19T13:02:09.838Z,16.13
2019-02-19T13:04:37.435Z,15.87
2019-02-19T13:07:04.953Z,15.80
2019-02-19T13:09:32.406Z,15.71
2019-02-19T13:11:59.980Z,15.68
2019-02-19T13:14:27.498Z,15.87
2019-02-19T13:16:54.973Z,15.90
2019-02-19T13:19:22.549Z,15.84
2019-02-19T13:21:49.977Z,15.90
2019-02-19T13:24:17.427Z,15.89
2019-02-19T13:26:45.054Z,16.03
2019-02-19T13:29:12.593Z,16.04
2019-02-19T13:31:40.172Z,16.04
2019-02-19T13:34:07.611Z,15.97
2019-02-19T13:36:35.157Z,16.00
2019-02-19T13:39:04.306Z,16.02
2019-02-19T13:41:31.795Z,16.07
2019-02-19T13:43:59.483Z,16.51
2019-02-19T13:46:27.043Z,16.37
2019-02-19T13:48:54.508Z,16.32
2019-02-19T13:51:22.041Z,16.51
2019-02-19T13:54:12.024Z,16.22
2019-02-19T13:56:39.536Z,16.13
2019-02-19T13:59:06.957Z,16.03
2019-02-19T14:01:34.488Z,16.15
2019-02-19T14:04:01.941Z,16.13
2019-02-19T14:06:29.497Z,16.30
2019-02-19T14:08:56.961Z,16.28
2019-02-19T14:11:24.514Z,16.42
2019-02-19T14:14:13.306Z,16.56
2019-02-19T14:16:52.100Z,16.61
2019-02-19T14:19:54.658Z,16.51
2019-02-19T14:22:39.956Z,16.55
2019-02-19T14:25:36.624Z,16.54
2019-02-19T14:28:23.731Z,16.51
2019-02-19T14:31:09.514Z,16.48
2019-02-19T14:34:02.452Z,16.44
2019-02-19T14:36:47.489Z,16.64
2019-02-19T14:39:37.441Z,16.75
2019-02-19T14:42:42.609Z,16.80
2019-02-19T14:45:17.816Z,16.75
2019-02-19T14:48:03.447Z,16.51
2019-02-19T14:50:44.382Z,16.42
2019-02-19T14:53:46.588Z,16.57
2019-02-19T14:56:32.362Z,16.47
2019-02-19T14:59:22.197Z,16.45
2019-02-19T15:02:12.346Z,16.31
2019-02-19T15:05:02.386Z,16.30
2019-02-19T15:08:07.728Z,16.23
2019-02-19T15:10:57.316Z,16.36
2019-02-19T15:13:43.046Z,16.34
2019-02-19T15:16:36.057Z,16.31
2019-02-19T15:19:21.733Z,16.15
2019-02-19T15:22:06.464Z,16.08
2019-02-19T15:24:56.127Z,16.10
2019-02-19T15:27:36.953Z,16.03
2019-02-19T15:30:43.014Z,15.94
2019-02-19T15:33:28.342Z,16.01
2019-02-19T15:36:30.429Z,15.82
2019-02-19T15:39:29.284Z,15.77
2019-02-19T15:42:16.244Z,15.65
2019-02-19T15:44:52.772Z,15.61
2019-02-19T15:47:55.119Z,15.60
2019-02-19T15:50:40.409Z,15.67
2019-02-19T15:53:33.358Z,15.61
2019-02-19T15:56:17.416Z,15.48
2019-02-19T15:59:01.929Z,15.31
2019-02-19T16:01:43.245Z,15.27
2019-02-19T16:04:32.714Z,15.33
2019-02-19T16:07:22.205Z,15.23
2019-02-19T16:10:15.272Z,15.18
2019-02-19T16:13:05.050Z,15.12
2019-02-19T16:15:50.702Z,15.14
2019-02-19T16:18:44.027Z,15.08
2019-02-19T16:21:30.980Z,14.94
2019-02-19T16:24:20.716Z,14.80
2019-02-19T16:26:54.394Z,14.87
2019-02-19T16:29:43.390Z,14.80
2019-02-19T16:32:30.399Z,14.78
2019-02-19T16:35:12.174Z,14.54
2019-02-19T16:37:44.739Z,14.46
2019-02-19T16:40:30.326Z,14.38
2019-02-19T16:43:20.812Z,14.29
2019-02-19T16:46:16.826Z,14.13
2019-02-19T16:49:03.808Z,14.25
2019-02-19T16:51:53.797Z,14.20
2019-02-19T16:54:34.819Z,14.19
2019-02-19T16:57:22.105Z,14.03
2019-02-19T17:00:06.380Z,14.03
2019-02-19T17:02:56.167Z,14.02
2019-02-19T17:05:58.947Z,13.77
2019-02-19T17:08:44.898Z,13.65
2019-02-19T17:11:41.029Z,13.69
2019-02-19T17:14:32.949Z,13.58
2019-02-19T17:17:07.780Z,13.42
2019-02-19T17:19:57.774Z,13.52
2019-02-19T17:22:40.208Z,13.51
2019-02-19T17:25:28.783Z,12.68
2019-02-19T17:28:27.815Z,12.07
2019-02-19T17:31:20.940Z,11.76
2019-02-19T17:34:08.753Z,11.57
2019-02-19T17:36:51.616Z,11.42
2019-02-19T17:39:38.013Z,11.37
2019-02-19T17:42:24.846Z,11.11
2019-02-19T17:45:27.342Z,10.98
2019-02-19T17:48:26.424Z,10.87
2019-02-19T17:51:16.119Z,10.79
2019-02-19T17:54:03.083Z,10.62
2019-02-19T17:56:53.929Z,10.54
2019-02-19T17:59:43.694Z,10.63
2019-02-19T18:02:27.404Z,10.76
2019-02-19T18:05:13.349Z,10.81
2019-02-19T18:08:02.678Z,10.96
2019-02-19T18:10:46.015Z,10.94
2019-02-19T18:13:21.113Z,10.77
2019-02-19T18:16:17.042Z,10.66
2019-02-19T18:18:51.232Z,10.55
2019-02-19T18:21:19.370Z,10.54
2019-02-19T18:23:46.824Z,10.46
2019-02-19T18:26:14.321Z,10.41
2019-02-19T18:28:42.042Z,10.09
2019-02-19T18:31:10.459Z,9.91
2019-02-19T18:33:37.905Z,9.73
2019-02-19T18:36:05.300Z,9.71
2019-02-19T18:38:32.734Z,10.06
2019-02-19T18:41:00.192Z,10.04
2019-02-19T18:43:27.854Z,9.87
2019-02-19T18:45:55.363Z,9.77
2019-02-19T18:48:22.876Z,9.72
2019-02-19T18:50:58.112Z,9.62
2019-02-19T18:53:19.935Z,9.68
2019-02-19T18:55:48.060Z,9.77
2019-02-19T18:58:16.586Z,9.54
2019-02-19T19:00:44.829Z,9.37
2019-02-19T19:03:13.647Z,9.27
2019-02-19T19:05:41.088Z,9.24
2019-02-19T19:08:11.509Z,9.28
2019-02-19T19:10:39.167Z,9.13
2019-02-19T19:13:06.725Z,9.08
2019-02-19T19:15:34.464Z,8.80
2019-02-19T19:18:01.957Z,8.72
2019-02-19T19:20:29.816Z,8.97
2019-02-19T19:22:57.318Z,9.15
2019-02-19T19:25:24.874Z,9.27
2019-02-19T19:27:52.347Z,9.28
2019-02-19T19:30:19.771Z,9.05
2019-02-19T19:32:47.291Z,8.77
2019-02-19T19:35:16.111Z,8.90
2019-02-19T19:37:43.692Z,9.06
2019-02-19T19:40:11.172Z,9.24
2019-02-19T19:42:39.738Z,9.22
2019-02-19T19:45:07.362Z,9.20
2019-02-19T19:47:34.873Z,9.18
2019-02-19T19:50:03.326Z,9.16
2019-02-19T19:52:31.150Z,8.93
2019-02-19T19:55:00.285Z,9.08
2019-02-19T19:57:27.988Z,8.92
2019-02-19T19:59:55.891Z,8.68
2019-02-19T20:02:23.614Z,8.54
2019-02-19T20:04:51.131Z,8.49
2019-02-19T20:07:18.602Z,8.57
2019-02-19T20:09:46.191Z,8.53
2019-02-19T20:12:14.150Z,8.74
2019-02-19T20:14:41.685Z,8.60
2019-02-19T20:17:09.154Z,8.54
2019-02-19T20:19:36.770Z,8.43
2019-02-19T20:22:04.609Z,8.32
2019-02-19T20:24:32.074Z,8.43
2019-02-19T20:26:59.528Z,8.37
2019-02-19T20:29:26.997Z,8.37
2019-02-19T20:31:54.420Z,8.43
2019-02-19T20:34:21.918Z,8.47
2019-02-19T20:36:49.487Z,8.42
2019-02-19T20:39:17.046Z,8.50
2019-02-19T20:41:44.439Z,8.59
2019-02-19T20:44:11.940Z,8.59
2019-02-19T20:46:39.471Z,8.55
2019-02-19T20:49:06.892Z,8.64
2019-02-19T20:51:36.616Z,8.79
2019-02-19T20:54:05.431Z,8.66
2019-02-19T20:56:33.018Z,8.52
2019-02-19T20:59:00.495Z,8.40
2019-02-19T21:01:27.898Z,8.37
2019-02-19T21:03:55.519Z,8.60
2019-02-19T21:06:23.130Z,8.63
2019-02-19T21:08:50.508Z,8.54
2019-02-19T21:11:18.021Z,8.34
2019-02-19T21:13:45.513Z,8.46
2019-02-19T21:16:13.043Z,8.55
2019-02-19T21:18:40.540Z,8.56
2019-02-19T21:21:08.027Z,8.52
2019-02-19T21:23:35.479Z,8.61
2019-02-19T21:26:03.170Z,8.43
2019-02-19T21:28:30.605Z,8.29
2019-02-19T21:30:58.156Z,8.20
2019-02-19T21:33:25.654Z,8.00
2019-02-19T21:35:57.606Z,7.94
2019-02-19T21:38:22.597Z,7.88
2019-02-19T21:40:50.037Z,7.69
2019-02-19T21:43:17.561Z,7.64
2019-02-19T21:45:45.095Z,7.55
2019-02-19T21:48:12.498Z,7.41
2019-02-19T21:50:39.942Z,7.43
2019-02-19T21:53:07.418Z,7.39
2019-02-19T21:55:34.956Z,7.23
2019-02-19T21:58:02.394Z,7.20
2019-02-19T22:00:29.883Z,7.13
2019-02-19T22:02:57.384Z,7.07
2019-02-19T22:05:26.806Z,7.06
2019-02-19T22:07:54.245Z,6.92
2019-02-19T22:10:21.732Z,6.85
2019-02-19T22:12:49.257Z,6.76
2019-02-19T22:15:16.704Z,6.72
2019-02-19T22:17:44.288Z,6.67
2019-02-19T22:20:28.060Z,6.82
2019-02-19T22:22:55.538Z,6.75
2019-02-19T22:25:23.000Z,6.80
2019-02-19T22:27:50.438Z,6.56
2019-02-19T22:30:17.914Z,6.44
2019-02-19T22:32:45.446Z,6.28
2019-02-19T22:35:12.936Z,6.37
2019-02-19T22:37:40.459Z,6.36
2019-02-19T22:40:08.100Z,6.34
2019-02-19T22:42:35.600Z,6.59
2019-02-19T22:45:03.336Z,6.68
2019-02-19T22:47:30.785Z,6.52
2019-02-19T22:49:58.335Z,6.67
2019-02-19T22:52:25.763Z,6.47
2019-02-19T22:55:11.666Z,6.55
2019-02-19T22:57:39.392Z,6.54
2019-02-19T23:00:10.794Z,5.98
2019-02-19T23:02:38.251Z,6.08
2019-02-19T23:05:05.967Z,6.05
2019-02-19T23:07:33.596Z,5.87
2019-02-19T23:10:01.135Z,6.12
2019-02-19T23:12:28.618Z,6.05
2019-02-19T23:14:56.037Z,6.06
2019-02-19T23:17:23.460Z,6.09
2019-02-19T23:19:50.945Z,5.95
2019-02-19T23:22:21.530Z,6.00
2019-02-19T23:24:47.799Z,5.84
2019-02-19T23:27:15.301Z,5.83
2019-02-19T23:29:42.784Z,5.60
2019-02-19T23:32:10.295Z,5.46
2019-02-19T23:34:37.889Z,5.57
2019-02-19T23:37:17.788Z,5.67
2019-02-19T23:39:45.391Z,5.80
2019-02-19T23:42:12.934Z,5.93
2019-02-19T23:44:40.403Z,6.09
2019-02-19T23:47:07.918Z,6.20
2019-02-19T23:49:35.410Z,6.29
2019-02-19T23:52:02.882Z,6.17
2019-02-19T23:54:30.427Z,6.22
2019-02-19T23:56:58.004Z,6.19
2019-02-19T23:59:25.415Z,6.18
